Time;durP1;ratioP1;P1;durP2;ratioP2;P2;SDS_P1;SDS_P2;PMS_P1;PMS_P2;Temp;Humidity;BMP_temperature;BMP_pressure;BME280_temperature;BME280_humidity;BME280_pressure;Samples;Min_cycle;Max_cycle;Signal;HPM_P1;HPM_P2
2022/11/09 00:00:35;;;;;;;;;;;;;;;12.10;73.55;100050.37;4473723;32;34133;-67
2022/11/09 00:03:02;;;;;;;;;;;;;;;12.23;73.14;100044.94;4473772;32;33308;-67
2022/11/09 00:05:30;;;;;;;;;;;;;;;12.41;71.92;100048.03;4471359;32;34330;-68
2022/11/09 00:07:57;;;;;;;;;;;;;;;12.09;73.14;100048.69;4475106;32;35420;-66
2022/11/09 00:10:24;;;;;;;;;;;;;;;12.14;72.82;100054.56;4474905;32;35272;-67
2022/11/09 00:12:51;;;;;;;;;;;;;;;11.98;74.27;100059.38;4467041;32;31720;-67
2022/11/09 00:15:19;;;;;;;;;;;;;;;12.20;72.78;100040.69;4480074;31;34062;-67
2022/11/09 00:17:46;;;;;;;;;;;;;;;11.76;74.80;100047.53;4466548;32;34259;-68
2022/11/09 00:20:13;;;;;;;;;;;;;;;11.96;74.05;100038.03;4466668;32;33584;-68
2022/11/09 00:22:41;;;;;;;;;;;;;;;12.02;73.44;100044.75;4457499;32;33047;-66
2022/11/09 00:25:08;;;;;;;;;;;;;;;12.01;73.44;100041.22;4475879;31;35275;-68
2022/11/09 00:27:35;;;;;;;;;;;;;;;11.85;74.59;100046.03;4474863;32;35364;-68
2022/11/09 00:30:03;;;;;;;;;;;;;;;11.61;75.41;100044.16;4476522;32;34282;-68
2022/11/09 00:32:30;;;;;;;;;;;;;;;11.96;74.01;100047.91;4464939;31;33961;-69
2022/11/09 00:34:58;;;;;;;;;;;;;;;11.79;74.16;100049.16;4475640;32;34325;-68
2022/11/09 00:37:28;;;;;;;;;;;;;;;12.00;73.91;100038.62;4473379;32;34654;-67
2022/11/09 00:39:55;;;;;;;;;;;;;;;12.23;72.61;100044.94;4476450;32;34388;-68
2022/11/09 00:42:23;;;;;;;;;;;;;;;12.03;73.29;100049.16;4471046;32;32114;-68
2022/11/09 00:44:50;;;;;;;;;;;;;;;11.94;73.51;100045.34;4464529;32;33728;-69
2022/11/09 00:47:18;;;;;;;;;;;;;;;11.40;76.30;100040.41;4472194;32;33970;-68
2022/11/09 00:49:46;;;;;;;;;;;;;;;11.88;74.62;100041.28;4467056;32;34298;-72
2022/11/09 00:52:13;;;;;;;;;;;;;;;11.58;75.47;100039.03;4472302;31;32735;-67
2022/11/09 00:54:40;;;;;;;;;;;;;;;11.59;75.57;100032.72;4460008;32;33607;-68
2022/11/09 00:57:08;;;;;;;;;;;;;;;11.92;73.84;100035.72;4475751;32;34188;-69
2022/11/09 00:59:35;;;;;;;;;;;;;;;11.77;75.11;100038.53;4468905;32;32592;-67
2022/11/09 01:02:03;;;;;;;;;;;;;;;11.80;74.82;100038.28;4472668;32;33392;-69
2022/11/09 01:04:30;;;;;;;;;;;;;;;12.36;72.37;100032.31;4470761;31;34061;-69
2022/11/09 01:06:58;;;;;;;;;;;;;;;11.73;74.16;100034.38;4469602;32;34128;-68
2022/11/09 01:09:26;;;;;;;;;;;;;;;11.81;74.99;100029.28;4468830;32;33961;-67
2022/11/09 01:11:53;;;;;;;;;;;;;;;12.10;73.12;100029.78;4469095;31;33233;-67
2022/11/09 01:14:21;;;;;;;;;;;;;;;12.15;73.65;100032.12;4467741;32;34927;-67
2022/11/09 01:16:48;;;;;;;;;;;;;;;12.38;73.04;100026.78;4471080;32;34361;-68
2022/11/09 01:19:16;;;;;;;;;;;;;;;11.86;73.34;100020.91;4470428;32;34766;-68
2022/11/09 01:21:44;;;;;;;;;;;;;;;11.79;74.77;100028.53;4470004;32;34405;-67
2022/11/09 01:24:11;;;;;;;;;;;;;;;12.03;73.80;100025.00;4462925;32;32720;-65
2022/11/09 01:26:39;;;;;;;;;;;;;;;11.99;73.60;100023.53;4480010;32;34017;-66
2022/11/09 01:29:06;;;;;;;;;;;;;;;12.08;73.30;100021.00;4479305;32;33271;-68
2022/11/09 01:31:33;;;;;;;;;;;;;;;12.08;73.71;100020.16;4469032;31;33157;-67
2022/11/09 01:34:01;;;;;;;;;;;;;;;12.08;73.92;100018.31;4468867;32;33893;-69
2022/11/09 01:36:28;;;;;;;;;;;;;;;12.27;72.68;100008.84;4479592;32;34576;-67
2022/11/09 01:38:59;;;;;;;;;;;;;;;12.43;71.50;100014.72;4469750;32;33954;-67
2022/11/09 01:41:27;;;;;;;;;;;;;;;11.86;73.80;100010.19;4469891;31;33303;-68
2022/11/09 01:44:05;;;;;;;;;;;;;;;12.01;73.29;100002.81;4470746;32;34164;-68
2022/11/09 01:46:41;;;;;;;;;;;;;;;12.12;72.75;100002.84;4469915;32;35273;-67
2022/11/09 01:49:13;;;;;;;;;;;;;;;12.07;73.10;100000.53;4471715;32;32592;-67
2022/11/09 01:51:42;;;;;;;;;;;;;;;11.51;76.09;99994.06;4472604;32;33358;-67
2022/11/09 01:54:12;;;;;;;;;;;;;;;11.79;74.59;99993.69;4460977;32;33837;-68
2022/11/09 01:56:39;;;;;;;;;;;;;;;11.78;74.61;100000.03;4462720;32;35089;-68
2022/11/09 01:59:10;;;;;;;;;;;;;;;11.17;77.46;99997.41;4467491;32;35308;-67
2022/11/09 02:01:37;;;;;;;;;;;;;;;11.71;75.16;100000.59;4477113;32;33272;-68
2022/11/09 02:04:19;;;;;;;;;;;;;;;11.98;74.13;99997.69;4474804;31;35454;-66
2022/11/09 02:06:47;;;;;;;;;;;;;;;11.46;75.47;99994.41;4465772;32;35503;-67
2022/11/09 02:09:17;;;;;;;;;;;;;;;11.37;76.92;99993.25;4461808;32;34207;-66
2022/11/09 02:11:44;;;;;;;;;;;;;;;11.54;75.80;99986.63;4476617;32;32485;-68
2022/11/09 02:14:12;;;;;;;;;;;;;;;11.75;74.11;99985.97;4471125;32;33954;-68
2022/11/09 02:16:39;;;;;;;;;;;;;;;10.82;77.61;99991.06;4472373;32;34534;-68
2022/11/09 02:19:07;;;;;;;;;;;;;;;11.10;77.37;99989.91;4471535;32;34224;-68
2022/11/09 02:21:34;;;;;;;;;;;;;;;11.65;74.60;99984.00;4471025;32;31961;-67
2022/11/09 02:24:01;;;;;;;;;;;;;;;11.75;74.15;99984.16;4471326;32;33925;-69
2022/11/09 02:26:31;;;;;;;;;;;;;;;11.59;74.50;99991.66;4472576;32;34261;-69
2022/11/09 02:28:59;;;;;;;;;;;;;;;11.57;74.16;99986.41;4465046;32;32514;-66
2022/11/09 02:31:29;;;;;;;;;;;;;;;10.11;80.79;99995.13;4464965;32;33304;-68
2022/11/09 02:34:02;;;;;;;;;;;;;;;11.37;76.17;99979.84;4467266;32;33960;-69
2022/11/09 02:36:31;;;;;;;;;;;;;;;11.06;77.14;99986.59;4458140;32;33712;-66
2022/11/09 02:38:59;;;;;;;;;;;;;;;11.57;75.22;99983.72;4465208;32;33876;-67
2022/11/09 02:41:26;;;;;;;;;;;;;;;11.50;75.15;99985.16;4468808;32;33456;-67
2022/11/09 02:43:55;;;;;;;;;;;;;;;11.58;74.45;99981.88;4454994;32;34940;-67
2022/11/09 02:46:23;;;;;;;;;;;;;;;11.55;74.25;99977.59;4465520;32;33746;-68
2022/11/09 02:48:51;;;;;;;;;;;;;;;11.56;74.06;99983.84;4474464;32;34621;-67
2022/11/09 02:51:19;;;;;;;;;;;;;;;11.23;75.13;99982.69;4469988;32;34306;-67
2022/11/09 02:53:47;;;;;;;;;;;;;;;10.84;76.49;99965.88;4473904;32;34551;-67
2022/11/09 02:56:14;;;;;;;;;;;;;;;10.66;77.25;99964.56;4471611;32;34198;-67
2022/11/09 02:58:42;;;;;;;;;;;;;;;10.79;77.09;99975.25;4467125;32;34950;-67
2022/11/09 03:01:09;;;;;;;;;;;;;;;11.03;76.38;99975.25;4465894;32;31760;-67
2022/11/09 03:03:37;;;;;;;;;;;;;;;10.88;76.53;99974.53;4473443;32;34922;-66
2022/11/09 03:06:04;;;;;;;;;;;;;;;10.39;77.76;99981.56;4473187;32;34385;-70
2022/11/09 03:08:32;;;;;;;;;;;;;;;10.26;80.44;99986.06;4468555;32;33550;-69
2022/11/09 03:10:59;;;;;;;;;;;;;;;10.83;77.45;99984.75;4473812;32;32898;-67
2022/11/09 03:13:27;;;;;;;;;;;;;;;10.38;79.37;99995.94;4464820;32;34036;-68
2022/11/09 03:15:55;;;;;;;;;;;;;;;11.10;76.32;99996.13;4470731;32;34065;-68
2022/11/09 03:18:22;;;;;;;;;;;;;;;11.37;75.24;99982.53;4474683;32;35124;-68
2022/11/09 03:20:49;;;;;;;;;;;;;;;11.35;74.71;99987.16;4471535;32;33304;-67
2022/11/09 03:23:17;;;;;;;;;;;;;;;11.20;75.29;99988.25;4469654;32;32841;-68
2022/11/09 03:25:45;;;;;;;;;;;;;;;11.26;74.91;99985.13;4465382;32;34105;-68
2022/11/09 03:28:13;;;;;;;;;;;;;;;11.17;75.49;99994.72;4465144;32;33684;-68
2022/11/09 03:30:40;;;;;;;;;;;;;;;11.49;74.04;99993.28;4476289;32;33407;-68
2022/11/09 03:33:09;;;;;;;;;;;;;;;11.42;74.09;99991.06;4471739;32;32866;-67
2022/11/09 03:35:36;;;;;;;;;;;;;;;11.36;73.87;99988.88;4467445;32;35129;-67
2022/11/09 03:38:04;;;;;;;;;;;;;;;11.66;73.20;99988.41;4471455;32;33401;-68
2022/11/09 03:40:31;;;;;;;;;;;;;;;11.04;75.01;99985.00;4473435;32;34065;-68
2022/11/09 03:42:58;;;;;;;;;;;;;;;10.99;75.27;99988.03;4472828;32;35109;-66
2022/11/09 03:45:28;;;;;;;;;;;;;;;11.00;75.50;99984.38;4470342;32;35140;-67
2022/11/09 03:47:58;;;;;;;;;;;;;;;11.33;74.21;99983.75;4466362;32;33910;-66
2022/11/09 03:50:27;;;;;;;;;;;;;;;11.41;74.17;99975.97;4471977;32;32229;-67
2022/11/09 03:52:54;;;;;;;;;;;;;;;11.31;74.06;99971.41;4475574;32;33922;-66
2022/11/09 03:55:21;;;;;;;;;;;;;;;11.17;74.96;99978.66;4465059;32;34765;-67
2022/11/09 03:57:49;;;;;;;;;;;;;;;11.17;74.59;99981.34;4475182;32;33661;-67
2022/11/09 04:00:17;;;;;;;;;;;;;;;11.02;75.79;99978.91;4467734;32;33283;-71
2022/11/09 04:02:45;;;;;;;;;;;;;;;10.21;78.97;99985.53;4468071;32;34837;-68
2022/11/09 04:05:12;;;;;;;;;;;;;;;10.89;76.68;99977.13;4477721;32;33961;-66
2022/11/09 04:07:40;;;;;;;;;;;;;;;10.40;77.98;99990.47;4477526;32;34104;-67
2022/11/09 04:10:07;;;;;;;;;;;;;;;10.52;78.45;99980.72;4475019;32;32010;-68
2022/11/09 04:12:34;;;;;;;;;;;;;;;11.01;75.97;99979.88;4477240;32;35123;-66
2022/11/09 04:15:02;;;;;;;;;;;;;;;11.31;74.38;99976.78;4473791;32;34301;-67
2022/11/09 04:17:29;;;;;;;;;;;;;;;11.06;75.03;99983.94;4471871;32;34083;-66
2022/11/09 04:19:56;;;;;;;;;;;;;;;10.29;79.31;99977.84;4464494;32;34385;-65
2022/11/09 04:22:24;;;;;;;;;;;;;;;10.83;77.18;99977.56;4471326;32;34439;-68
2022/11/09 04:24:51;;;;;;;;;;;;;;;10.93;76.14;99973.25;4468412;32;35260;-66
2022/11/09 04:27:18;;;;;;;;;;;;;;;10.74;76.68;99980.91;4477491;32;33831;-66
2022/11/09 04:29:45;;;;;;;;;;;;;;;10.85;76.49;99972.97;4467754;32;35551;-66
2022/11/09 04:32:13;;;;;;;;;;;;;;;10.82;76.50;99981.22;4468529;32;33498;-66
2022/11/09 04:34:40;;;;;;;;;;;;;;;10.95;76.34;99974.00;4470712;32;34249;-67
2022/11/09 04:37:08;;;;;;;;;;;;;;;10.99;75.50;99968.44;4468755;32;35236;-66
2022/11/09 04:39:35;;;;;;;;;;;;;;;10.61;77.63;99966.69;4466148;32;34466;-65
2022/11/09 04:42:02;;;;;;;;;;;;;;;11.10;74.79;99971.16;4467086;32;33581;-66
2022/11/09 04:44:30;;;;;;;;;;;;;;;11.33;74.12;99967.66;4477992;32;34292;-66
2022/11/09 04:46:57;;;;;;;;;;;;;;;11.30;73.64;99970.56;4469946;32;34936;-67
2022/11/09 04:49:24;;;;;;;;;;;;;;;11.49;73.26;99972.69;4463904;32;32859;-67
2022/11/09 04:51:51;;;;;;;;;;;;;;;11.64;72.20;99973.38;4469715;32;34433;-68
2022/11/09 04:54:19;;;;;;;;;;;;;;;11.61;72.65;99970.94;4464582;32;34306;-67
2022/11/09 04:56:46;;;;;;;;;;;;;;;11.56;72.45;99970.44;4475079;32;32802;-67
2022/11/09 04:59:13;;;;;;;;;;;;;;;11.27;73.54;99970.78;4471674;32;34395;-66
2022/11/09 05:01:41;;;;;;;;;;;;;;;11.06;74.05;99965.19;4465510;32;34040;-65
2022/11/09 05:04:08;;;;;;;;;;;;;;;10.84;75.04;99968.56;4468122;32;34299;-68
2022/11/09 05:06:36;;;;;;;;;;;;;;;11.16;74.12;99965.34;4467780;32;34082;-67
2022/11/09 05:09:04;;;;;;;;;;;;;;;10.66;76.01;99959.19;4466026;32;32036;-70
2022/11/09 05:11:32;;;;;;;;;;;;;;;10.76;76.04;99968.28;4468172;32;34276;-69
2022/11/09 05:14:00;;;;;;;;;;;;;;;10.61;76.70;99969.38;4466383;32;34135;-66
2022/11/09 05:16:27;;;;;;;;;;;;;;;10.55;77.38;99964.44;4471769;32;35000;-69
2022/11/09 05:18:55;;;;;;;;;;;;;;;10.50;77.60;99954.09;4473305;32;32130;-67
2022/11/09 05:21:22;;;;;;;;;;;;;;;10.62;77.11;99953.19;4464883;32;33734;-67
2022/11/09 05:23:58;;;;;;;;;;;;;;;9.97;79.30;99955.97;4470891;32;32513;-67
2022/11/09 05:26:32;;;;;;;;;;;;;;;10.34;78.59;99956.13;4464098;32;35042;-66
2022/11/09 05:29:01;;;;;;;;;;;;;;;10.09;79.13;99968.50;4473016;32;33189;-67
2022/11/09 05:31:29;;;;;;;;;;;;;;;10.30;78.55;99974.19;4472665;32;34608;-67
2022/11/09 05:33:56;;;;;;;;;;;;;;;10.74;76.92;99972.88;4478877;32;34816;-68
2022/11/09 05:36:24;;;;;;;;;;;;;;;10.55;77.96;99976.00;4475408;32;35254;-69
2022/11/09 05:38:51;;;;;;;;;;;;;;;10.63;76.77;99975.47;4471090;32;33311;-67
2022/11/09 05:41:19;;;;;;;;;;;;;;;10.53;78.31;99971.72;4477718;32;34105;-67
2022/11/09 05:43:46;;;;;;;;;;;;;;;10.37;78.77;99978.19;4470425;32;35059;-69
2022/11/09 05:46:13;;;;;;;;;;;;;;;10.65;76.89;99977.06;4470471;32;34465;-67
2022/11/09 05:48:41;;;;;;;;;;;;;;;10.30;78.60;99976.00;4467965;32;34112;-67
2022/11/09 05:51:10;;;;;;;;;;;;;;;10.72;76.82;99970.31;4474930;32;34388;-67
2022/11/09 05:53:37;;;;;;;;;;;;;;;10.81;76.64;99976.81;4475653;32;35630;-67
2022/11/09 05:56:13;;;;;;;;;;;;;;;10.69;76.60;99975.03;4468521;32;32701;-67
2022/11/09 05:58:40;;;;;;;;;;;;;;;10.78;76.45;99981.53;4466311;32;34255;-67
2022/11/09 06:01:09;;;;;;;;;;;;;;;10.52;77.97;99986.91;4466695;32;33691;-70
2022/11/09 06:03:36;;;;;;;;;;;;;;;10.61;77.57;99985.44;4454911;32;33946;-67
2022/11/09 06:06:05;;;;;;;;;;;;;;;10.20;79.26;99986.47;4472355;32;34063;-67
2022/11/09 06:08:35;;;;;;;;;;;;;;;10.72;76.87;99982.81;4474621;32;32814;-70
2022/11/09 06:11:06;;;;;;;;;;;;;;;10.34;78.29;99986.41;4466659;32;34410;-67
2022/11/09 06:13:34;;;;;;;;;;;;;;;10.44;78.01;99982.12;4475061;32;34331;-67
2022/11/09 06:16:02;;;;;;;;;;;;;;;10.54;77.21;99982.31;4471318;32;34293;-69
2022/11/09 06:18:30;;;;;;;;;;;;;;;10.80;76.84;99985.81;4477295;32;32097;-68
2022/11/09 06:20:58;;;;;;;;;;;;;;;10.64;77.31;99990.56;4471938;32;34386;-69
2022/11/09 06:23:26;;;;;;;;;;;;;;;10.56;77.85;99988.44;4474948;32;34434;-68
2022/11/09 06:25:57;;;;;;;;;;;;;;;10.65;77.00;99989.59;4472031;32;33805;-68
2022/11/09 06:28:24;;;;;;;;;;;;;;;10.74;76.40;99994.28;4474474;32;33481;-69
2022/11/09 06:30:51;;;;;;;;;;;;;;;10.52;77.24;99994.94;4471631;32;34212;-66
2022/11/09 06:33:19;;;;;;;;;;;;;;;10.77;76.44;99998.56;4473754;32;34263;-66
2022/11/09 06:35:47;;;;;;;;;;;;;;;10.40;77.52;99995.81;4472963;32;34977;-67
2022/11/09 06:38:22;;;;;;;;;;;;;;;10.76;75.82;99992.38;4469119;32;33563;-67
2022/11/09 06:40:50;;;;;;;;;;;;;;;10.02;79.58;99994.81;4465826;32;32806;-68
2022/11/09 06:43:17;;;;;;;;;;;;;;;10.24;78.45;99990.62;4474070;32;33836;-67
2022/11/09 06:45:45;;;;;;;;;;;;;;;9.82;80.12;99995.28;4472782;32;35052;-68
2022/11/09 06:48:12;;;;;;;;;;;;;;;9.91;79.90;99993.81;4465509;32;33208;-68
2022/11/09 06:50:40;;;;;;;;;;;;;;;10.43;78.18;100009.84;4470749;32;33714;-67
2022/11/09 06:53:08;;;;;;;;;;;;;;;10.46;77.28;100000.72;4471016;32;32886;-68
2022/11/09 06:55:36;;;;;;;;;;;;;;;10.18;78.57;99999.13;4468401;32;32767;-67
2022/11/09 06:58:06;;;;;;;;;;;;;;;10.19;78.03;100003.50;4468875;32;33035;-67
2022/11/09 07:00:34;;;;;;;;;;;;;;;10.38;77.93;100008.47;4465645;32;34157;-68
2022/11/09 07:03:01;;;;;;;;;;;;;;;9.46;82.79;100002.16;4468728;32;35114;-67
2022/11/09 07:05:29;;;;;;;;;;;;;;;10.23;78.34;100005.84;4471691;32;32947;-67
2022/11/09 07:07:56;;;;;;;;;;;;;;;10.20;77.58;100000.69;4473354;32;34479;-69
2022/11/09 07:10:24;;;;;;;;;;;;;;;10.26;78.29;100002.13;4472943;32;34022;-68
2022/11/09 07:12:51;;;;;;;;;;;;;;;10.17;78.70;100005.41;4471479;32;34234;-69
2022/11/09 07:15:18;;;;;;;;;;;;;;;10.21;78.28;100004.25;4475472;32;34152;-70
2022/11/09 07:17:45;;;;;;;;;;;;;;;9.83;79.80;100001.53;4477003;32;34450;-67
2022/11/09 07:20:13;;;;;;;;;;;;;;;10.13;78.31;100001.25;4466370;32;33935;-67
2022/11/09 07:22:41;;;;;;;;;;;;;;;9.60;80.58;100003.03;4474168;32;32890;-66
2022/11/09 07:25:09;;;;;;;;;;;;;;;10.09;78.24;100013.13;4468250;32;35012;-68
2022/11/09 07:27:37;;;;;;;;;;;;;;;9.57;80.10;100009.47;4466249;32;34476;-68
2022/11/09 07:30:04;;;;;;;;;;;;;;;9.91;78.64;100012.53;4474239;32;35229;-68
2022/11/09 07:32:33;;;;;;;;;;;;;;;9.75;79.19;100008.22;4476431;32;35738;-67
2022/11/09 07:35:20;;;;;;;;;;;;;;;9.47;81.12;100009.22;4469283;32;34114;-66
2022/11/09 07:37:47;;;;;;;;;;;;;;;9.59;80.64;100010.19;4459966;32;31761;-67
2022/11/09 07:40:14;;;;;;;;;;;;;;;9.71;80.45;100006.72;4468562;32;35305;-66
2022/11/09 07:42:42;;;;;;;;;;;;;;;9.63;80.93;100003.72;4464760;32;33077;-67
2022/11/09 07:45:09;;;;;;;;;;;;;;;9.92;80.07;100011.56;4465513;32;34442;-65
2022/11/09 07:47:37;;;;;;;;;;;;;;;10.29;78.20;100006.41;4470872;32;31501;-65
2022/11/09 07:50:05;;;;;;;;;;;;;;;10.21;78.49;100014.94;4468161;32;34314;-65
2022/11/09 07:52:32;;;;;;;;;;;;;;;9.86;79.60;100009.34;4476155;32;34055;-66
2022/11/09 07:54:59;;;;;;;;;;;;;;;9.33;83.25;100011.94;4470270;32;35459;-65
2022/11/09 07:57:26;;;;;;;;;;;;;;;10.06;79.35;100013.31;4465198;32;31480;-64
2022/11/09 07:59:54;;;;;;;;;;;;;;;9.85;79.56;100010.28;4475165;32;34236;-66
2022/11/09 08:02:21;;;;;;;;;;;;;;;10.07;79.39;100009.69;4469201;32;35084;-65
2022/11/09 08:04:48;;;;;;;;;;;;;;;10.57;76.82;100011.56;4474419;32;34227;-65
2022/11/09 08:07:16;;;;;;;;;;;;;;;10.41;77.24;100003.75;4477387;32;33244;-66
2022/11/09 08:09:43;;;;;;;;;;;;;;;9.93;78.62;100005.28;4471026;32;34299;-65
2022/11/09 08:12:10;;;;;;;;;;;;;;;10.11;79.17;100003.16;4477001;32;34360;-66
2022/11/09 08:14:38;;;;;;;;;;;;;;;10.23;78.15;100004.97;4472351;32;33826;-66
2022/11/09 08:17:05;;;;;;;;;;;;;;;10.07;79.44;99998.97;4477495;32;31804;-65
2022/11/09 08:19:33;;;;;;;;;;;;;;;10.44;77.40;100000.00;4455983;32;34005;-70
2022/11/09 08:22:00;;;;;;;;;;;;;;;10.54;76.96;99992.19;4475222;32;32885;-65
2022/11/09 08:24:27;;;;;;;;;;;;;;;10.54;76.76;99994.84;4483182;32;33982;-68
2022/11/09 08:26:54;;;;;;;;;;;;;;;10.26;77.33;99997.62;4470759;32;33612;-66
2022/11/09 08:29:22;;;;;;;;;;;;;;;10.13;79.39;99993.22;4477712;32;34140;-66
2022/11/09 08:31:49;;;;;;;;;;;;;;;9.76;80.39;99991.25;4471046;32;34256;-66
2022/11/09 08:34:17;;;;;;;;;;;;;;;10.31;78.69;99994.66;4462119;32;33484;-66
2022/11/09 08:36:44;;;;;;;;;;;;;;;9.80;80.84;99992.75;4467927;32;33943;-66
2022/11/09 08:39:11;;;;;;;;;;;;;;;10.12;80.01;99995.03;4471097;32;34162;-68
2022/11/09 08:41:39;;;;;;;;;;;;;;;10.23;79.40;99999.63;4481247;32;32882;-66
2022/11/09 08:44:06;;;;;;;;;;;;;;;10.51;78.52;99992.41;4474345;32;34188;-66
2022/11/09 08:46:33;;;;;;;;;;;;;;;10.82;77.02;99985.69;4472821;32;33270;-65
2022/11/09 08:49:07;;;;;;;;;;;;;;;10.45;78.71;99991.84;4471288;32;35205;-66
2022/11/09 08:51:34;;;;;;;;;;;;;;;10.28;79.92;100004.72;4476908;32;32952;-64
2022/11/09 08:54:02;;;;;;;;;;;;;;;10.46;78.90;99996.25;4473424;32;32311;-67
2022/11/09 08:56:29;;;;;;;;;;;;;;;10.82;77.76;99996.41;4476260;32;33217;-66
2022/11/09 08:58:56;;;;;;;;;;;;;;;10.62;77.68;99989.81;4470523;32;34345;-65
2022/11/09 09:01:24;;;;;;;;;;;;;;;10.33;80.26;100000.72;4469413;32;34347;-64
2022/11/09 09:03:51;;;;;;;;;;;;;;;10.23;81.42;99996.97;4468378;32;34434;-65
2022/11/09 09:06:19;;;;;;;;;;;;;;;9.99;81.50;99992.34;4466982;32;32086;-65
2022/11/09 09:08:46;;;;;;;;;;;;;;;10.36;80.29;99999.66;4473200;32;35251;-67
2022/11/09 09:11:15;;;;;;;;;;;;;;;10.77;78.58;99996.75;4477958;32;35433;-65
2022/11/09 09:13:42;;;;;;;;;;;;;;;10.41;79.46;99986.84;4453714;32;925576;-65
2022/11/09 09:16:10;;;;;;;;;;;;;;;10.66;79.45;99988.66;4475324;32;33860;-67
2022/11/09 09:18:38;;;;;;;;;;;;;;;10.26;80.86;99994.09;4471234;32;33892;-65
2022/11/09 09:21:06;;;;;;;;;;;;;;;10.79;78.67;99991.31;4468966;32;34065;-65
2022/11/09 09:23:33;;;;;;;;;;;;;;;10.71;78.61;99995.34;4472081;32;34134;-64
2022/11/09 09:26:01;;;;;;;;;;;;;;;10.87;78.09;99987.09;4474110;32;33217;-65
2022/11/09 09:28:28;;;;;;;;;;;;;;;10.71;78.52;99990.00;4480515;32;34150;-65
2022/11/09 09:30:58;;;;;;;;;;;;;;;10.60;79.14;99992.59;4472057;32;36003;-65
2022/11/09 09:33:26;;;;;;;;;;;;;;;11.01;77.89;99993.25;4482386;32;34581;-65
2022/11/09 09:35:54;;;;;;;;;;;;;;;10.77;78.70;99994.06;4473108;32;34742;-66
2022/11/09 09:38:21;;;;;;;;;;;;;;;11.07;77.62;99996.34;4474511;32;35055;-67
2022/11/09 09:40:59;;;;;;;;;;;;;;;11.35;76.68;99995.19;4467819;32;34212;-66
2022/11/09 09:43:46;;;;;;;;;;;;;;;10.27;81.21;99995.81;4470752;32;35088;-67
2022/11/09 09:46:32;;;;;;;;;;;;;;;10.63;80.21;99987.03;4474604;32;33460;-66
2022/11/09 09:49:05;;;;;;;;;;;;;;;10.92;78.97;99984.09;4464774;32;34024;-65
2022/11/09 09:51:44;;;;;;;;;;;;;;;10.80;79.59;99983.16;4459823;32;34082;-66
2022/11/09 09:54:14;;;;;;;;;;;;;;;10.88;79.17;99975.44;4469492;32;32635;-66
2022/11/09 09:56:42;;;;;;;;;;;;;;;11.13;78.33;99976.28;4461725;32;33542;-67
2022/11/09 09:59:19;;;;;;;;;;;;;;;10.96;79.29;99975.72;4467756;32;33919;-67
2022/11/09 10:01:46;;;;;;;;;;;;;;;11.46;76.64;99972.09;4469273;32;34974;-66
2022/11/09 10:04:21;;;;;;;;;;;;;;;10.36;81.62;99973.75;4460700;32;32679;-66
2022/11/09 10:06:48;;;;;;;;;;;;;;;11.11;78.80;99957.66;4464133;32;33102;-66
2022/11/09 10:09:21;;;;;;;;;;;;;;;10.75;80.39;99965.69;4477520;32;34979;-66
2022/11/09 10:11:52;;;;;;;;;;;;;;;11.12;78.80;99951.34;4469805;32;34321;-66
2022/11/09 10:14:24;;;;;;;;;;;;;;;11.33;77.32;99954.25;4465926;32;34120;-68
2022/11/09 10:17:10;;;;;;;;;;;;;;;11.49;76.89;99955.78;4469866;32;34775;-68
2022/11/09 10:19:50;;;;;;;;;;;;;;;10.46;81.67;99955.25;4474316;32;34060;-67
2022/11/09 10:22:21;;;;;;;;;;;;;;;11.13;78.55;99957.53;4462329;32;34452;-64
2022/11/09 10:24:53;;;;;;;;;;;;;;;11.17;78.91;99959.03;4467895;32;34477;-66
2022/11/09 10:27:46;;;;;;;;;;;;;;;11.29;78.11;99958.13;4456845;32;32832;-65
2022/11/09 10:30:18;;;;;;;;;;;;;;;11.24;78.57;99954.09;4460061;32;33657;-65
2022/11/09 10:32:53;;;;;;;;;;;;;;;11.06;79.21;99957.16;4473053;32;34351;-65
2022/11/09 10:35:23;;;;;;;;;;;;;;;10.65;81.50;99949.44;4479688;32;32250;-65
2022/11/09 10:37:51;;;;;;;;;;;;;;;11.18;79.51;99952.72;4466577;32;33468;-67
2022/11/09 10:40:21;;;;;;;;;;;;;;;11.22;78.56;99951.50;4475546;32;35181;-67
2022/11/09 10:43:10;;;;;;;;;;;;;;;10.70;81.21;99948.16;4471367;32;34593;-67
2022/11/09 10:46:03;;;;;;;;;;;;;;;11.25;78.89;99948.59;4467298;32;32770;-73
2022/11/09 10:48:49;;;;;;;;;;;;;;;10.76;80.71;99937.97;4482675;32;34234;-65
2022/11/09 10:51:39;;;;;;;;;;;;;;;10.80;81.20;99934.09;4476239;32;34045;-64
2022/11/09 10:54:26;;;;;;;;;;;;;;;11.64;77.10;99925.13;4482411;32;34206;-65
2022/11/09 10:57:16;;;;;;;;;;;;;;;10.69;81.48;99941.09;4473933;32;34878;-64
2022/11/09 11:00:02;;;;;;;;;;;;;;;10.78;82.95;99934.19;4475446;32;31964;-65
2022/11/09 11:02:49;;;;;;;;;;;;;;;11.67;77.67;99927.56;4470377;32;35357;-65
2022/11/09 11:05:35;;;;;;;;;;;;;;;10.51;82.97;99930.84;4471844;32;34012;-66
2022/11/09 11:08:21;;;;;;;;;;;;;;;11.39;79.03;99918.94;4461879;32;34044;-65
2022/11/09 11:11:18;;;;;;;;;;;;;;;11.02;79.89;99918.16;4480993;32;33344;-65
2022/11/09 11:14:19;;;;;;;;;;;;;;;11.70;77.57;99913.09;4456132;32;34875;-66
2022/11/09 11:17:27;;;;;;;;;;;;;;;11.59;78.07;99914.78;4443950;32;34099;-65
2022/11/09 11:20:25;;;;;;;;;;;;;;;11.54;78.63;99910.72;4442748;32;33999;-65
2022/11/09 11:23:11;;;;;;;;;;;;;;;10.99;81.33;99912.19;4446582;32;34457;-68
2022/11/09 11:26:00;;;;;;;;;;;;;;;12.14;75.74;99911.50;4449067;32;34276;-65
2022/11/09 11:28:50;;;;;;;;;;;;;;;12.12;75.59;99915.13;4446559;32;34868;-65
2022/11/09 11:31:36;;;;;;;;;;;;;;;11.48;77.89;99914.72;4443773;32;35045;-65
2022/11/09 11:34:21;;;;;;;;;;;;;;;12.05;75.67;99908.56;4450497;32;33340;-66
2022/11/09 11:37:39;;;;;;;;;;;;;;;12.26;75.05;99915.88;4439862;32;34646;-66
2022/11/09 11:40:27;;;;;;;;;;;;;;;11.27;79.23;99919.88;4452145;32;33571;-65
2022/11/09 11:43:39;;;;;;;;;;;;;;;11.65;77.92;99919.66;4447479;32;34227;-65
2022/11/09 11:46:30;;;;;;;;;;;;;;;12.46;73.84;99917.00;4452890;32;33266;-65
2022/11/09 11:49:48;;;;;;;;;;;;;;;12.22;75.21;99909.91;4452206;32;35615;-66
2022/11/09 11:52:46;;;;;;;;;;;;;;;11.63;77.92;99918.91;4431461;32;33181;-66
2022/11/09 11:55:45;;;;;;;;;;;;;;;12.00;75.83;99912.56;4453619;32;32751;-66
2022/11/09 11:58:34;;;;;;;;;;;;;;;11.77;76.55;99907.13;4450695;32;31894;-66
2022/11/09 12:01:20;;;;;;;;;;;;;;;12.14;75.86;99904.31;4446181;32;33837;-65
2022/11/09 12:04:25;;;;;;;;;;;;;;;11.98;75.37;99907.34;4455411;32;33988;-66
2022/11/09 12:07:23;;;;;;;;;;;;;;;11.51;78.63;99908.28;4438468;32;35194;-66
2022/11/09 12:10:15;;;;;;;;;;;;;;;11.93;76.36;99904.13;4450946;32;32044;-68
2022/11/09 12:13:20;;;;;;;;;;;;;;;12.01;76.11;99901.72;4451146;32;34044;-66
2022/11/09 12:16:12;;;;;;;;;;;;;;;12.40;74.79;99898.69;4442777;32;33998;-65
2022/11/09 12:18:58;;;;;;;;;;;;;;;11.83;76.58;99903.13;4457099;32;33577;-68
2022/11/09 12:21:53;;;;;;;;;;;;;;;11.55;79.30;99897.19;4448512;32;31596;-67
2022/11/09 12:24:54;;;;;;;;;;;;;;;11.27;79.93;99894.87;4447303;32;34236;-66
2022/11/09 12:27:58;;;;;;;;;;;;;;;11.85;77.14;99896.69;4434047;32;33906;-64
2022/11/09 12:31:02;;;;;;;;;;;;;;;11.52;78.25;99892.06;4449771;32;34411;-65
2022/11/09 12:34:01;;;;;;;;;;;;;;;11.52;79.50;99900.09;4441549;32;34387;-65
2022/11/09 12:36:54;;;;;;;;;;;;;;;11.80;77.51;99890.78;4450264;32;34108;-64
2022/11/09 12:39:40;;;;;;;;;;;;;;;11.69;77.32;99893.47;4442723;32;35433;-65
2022/11/09 12:42:32;;;;;;;;;;;;;;;12.48;74.43;99889.03;4450768;32;35462;-67
2022/11/09 12:45:32;;;;;;;;;;;;;;;11.94;76.59;99887.09;4442962;32;33324;-65
2022/11/09 12:48:21;;;;;;;;;;;;;;;12.41;75.01;99890.50;4444106;32;33713;-65
2022/11/09 12:51:07;;;;;;;;;;;;;;;12.84;72.76;99892.44;4449085;32;32778;-67
2022/11/09 12:53:53;;;;;;;;;;;;;;;12.47;73.88;99894.53;4449373;32;35159;-66
2022/11/09 12:56:57;;;;;;;;;;;;;;;12.20;75.47;99889.53;4447368;32;33175;-65
2022/11/09 12:59:48;;;;;;;;;;;;;;;12.20;75.49;99887.72;4435326;32;32698;-66
2022/11/09 13:02:36;;;;;;;;;;;;;;;11.04;81.72;99885.91;4440924;32;35843;-66
2022/11/09 13:05:36;;;;;;;;;;;;;;;11.79;78.26;99881.06;4444447;32;34198;-64
2022/11/09 13:08:28;;;;;;;;;;;;;;;11.35;80.30;99879.94;4433423;32;31901;-65
2022/11/09 13:11:16;;;;;;;;;;;;;;;12.26;75.37;99872.94;4447042;32;34812;-65
2022/11/09 13:14:20;;;;;;;;;;;;;;;11.87;76.75;99873.28;4460112;32;34194;-65